Rockford, IL

11:45 AM CST on March 06, 2015 (GMT -0600)
Rochelle | Change Station
CLOSE
Current Station
Airport
Location: Rochelle,
Elevation: 781 ft
Nearby Weather Stations

Elev 781 ft 41.89 °N, 89.08 °W | Updated 10 minutes ago

Partly Cloudy
Partly Cloudy
20 °F
Feels Like 5 °F
N
16
Wind Variable Wind from South

Today
High -- | Low -- °F
--% Chance of Precip.
Yesterday
High -- | Low -- °F
Precip. -- in
6:24 AM 5:52 PM
Full, 99% visible
Pressure 30.29 in
Visibility 10.0 miles
Clouds Scattered Clouds 10000 ft
Windchill 5 °F
Dew Point 13 °F
Humidity 74%
Rainfall 0.00 in
Snow Depth Not available.
UV 4 out of 12
Pollen .40 out of 12
Air Quality Not available.
Flu Activity Not available.
METAR KRPJ 061735Z AUTO 18014KT 10SM SCT100 M07/M11 A3029 RMK AO2 T10681107

More Conditions Fewer Conditions

Pressure 30.29 in
Visibility 10.0 miles
Clouds Scattered Clouds 10000 ft
Windchill 5 °F
Dew Point 13 °F
Humidity 74%
Rainfall 0.00 in
Snow Depth Not available.
UV 4 out of 12
Pollen .40 out of 12
Air Quality Not available.
Flu Activity Not available.
METAR KRPJ 061735Z AUTO 18014KT 10SM SCT100 M07/M11 A3029 RMK AO2 T10681107

More Conditions Fewer Conditions

10-Day Weather Forecast

Almanac

Astronomy

Mar. 06, 2015 Rise Set
Actual Time
Civil Twilight
Nautical Twilight
Astronomical Twilight
Moon
Length of Visible Light
Length of Day
Tomorrow will be .
, % of the Moon is Illuminated

Today's Extremes

State Highs State Lows

Community

WunderPhotos

Upload Photos

1,803,347 photos uploaded!

WunderBlogs® & News

Nearby

Air Quality

  Air Quality AQ Index Pollutant
Not available.

Snow Depth

Station Depth Elevation

Earthquake Activity

City Distance Mag. Time & Date
Minimum magnitude displayed is 2.5.

Coastal Water Temperatures

Place Temperature

Nearby Weather Stations